createdAt,value
2019-03-15T00:00:54.500Z,18.00
2019-03-15T00:01:54.337Z,18.00
2019-03-15T00:02:51.045Z,18.00
2019-03-15T00:03:47.764Z,18.00
2019-03-15T00:04:44.468Z,18.00
2019-03-15T00:05:41.188Z,18.00
2019-03-15T00:06:37.924Z,18.00
2019-03-15T00:07:34.626Z,18.00
2019-03-15T00:08:31.431Z,18.00
2019-03-15T00:09:28.233Z,18.00
2019-03-15T00:10:24.949Z,18.00
2019-03-15T00:11:21.677Z,17.94
2019-03-15T00:12:18.388Z,18.00
2019-03-15T00:13:15.092Z,18.00
2019-03-15T00:14:11.812Z,17.94
2019-03-15T00:15:08.517Z,17.94
2019-03-15T00:16:05.224Z,18.00
2019-03-15T00:17:01.924Z,17.94
2019-03-15T00:17:58.637Z,17.94
2019-03-15T00:18:55.349Z,17.94
2019-03-15T00:19:52.047Z,17.94
2019-03-15T00:20:48.657Z,17.94
2019-03-15T00:21:45.461Z,17.94
2019-03-15T00:22:42.108Z,17.94
2019-03-15T00:23:38.813Z,17.94
2019-03-15T00:24:35.525Z,17.94
2019-03-15T00:25:32.238Z,17.94
2019-03-15T00:26:29.009Z,17.94
2019-03-15T00:27:25.680Z,17.94
2019-03-15T00:28:22.398Z,17.94
2019-03-15T00:29:19.101Z,17.94
2019-03-15T00:30:15.809Z,17.94
2019-03-15T00:31:12.614Z,17.94
2019-03-15T00:32:09.249Z,17.94
2019-03-15T00:33:05.952Z,17.94
2019-03-15T00:34:02.658Z,17.94
2019-03-15T00:34:59.356Z,17.94
2019-03-15T00:35:56.060Z,17.94
2019-03-15T00:36:52.702Z,17.94
2019-03-15T00:37:49.401Z,17.94
2019-03-15T00:38:46.017Z,17.94
2019-03-15T00:39:42.724Z,17.94
2019-03-15T00:40:39.328Z,17.94
2019-03-15T00:41:35.965Z,17.94
2019-03-15T00:42:32.682Z,17.94
2019-03-15T00:43:29.385Z,17.94
2019-03-15T00:44:26.097Z,17.94
2019-03-15T00:45:22.819Z,17.94
2019-03-15T00:46:19.656Z,17.94
2019-03-15T00:47:17.362Z,17.94
2019-03-15T00:48:14.152Z,17.94
2019-03-15T00:49:10.864Z,17.94
2019-03-15T00:50:07.565Z,17.94
2019-03-15T00:51:04.196Z,17.94
2019-03-15T00:52:00.937Z,17.94
2019-03-15T00:52:57.657Z,17.94
2019-03-15T00:53:54.803Z,17.94
2019-03-15T00:54:51.685Z,17.94
2019-03-15T00:55:48.293Z,17.87
2019-03-15T00:56:45.048Z,17.94
2019-03-15T00:57:41.753Z,17.94
2019-03-15T00:58:38.464Z,17.87
2019-03-15T00:59:35.176Z,17.87
2019-03-15T01:00:31.889Z,17.87
2019-03-15T01:01:28.597Z,17.87
2019-03-15T01:02:25.231Z,17.87
2019-03-15T01:03:21.945Z,17.87
2019-03-15T01:04:18.662Z,17.87
2019-03-15T01:05:15.381Z,17.87
2019-03-15T01:06:12.092Z,17.87
2019-03-15T01:07:08.743Z,17.87
2019-03-15T01:08:05.465Z,17.87
2019-03-15T01:09:02.192Z,17.87
2019-03-15T01:09:58.909Z,17.87
2019-03-15T01:10:55.621Z,17.87
2019-03-15T01:11:52.366Z,17.87
2019-03-15T01:12:49.153Z,17.87
2019-03-15T01:13:45.788Z,17.87
2019-03-15T01:14:42.501Z,17.87
2019-03-15T01:15:39.208Z,17.87
2019-03-15T01:16:35.939Z,17.87
2019-03-15T01:17:32.665Z,17.87
2019-03-15T01:18:29.389Z,17.87
2019-03-15T01:19:26.089Z,17.87
2019-03-15T01:20:22.811Z,17.87
2019-03-15T01:21:19.520Z,17.87
2019-03-15T01:22:16.266Z,17.87
2019-03-15T01:23:12.970Z,17.87
2019-03-15T01:24:09.685Z,17.87
2019-03-15T01:25:06.401Z,17.87
2019-03-15T01:26:03.109Z,17.87
2019-03-15T01:27:02.937Z,17.87
2019-03-15T01:27:59.646Z,17.87
2019-03-15T01:28:56.374Z,17.87
2019-03-15T01:29:53.123Z,17.87
2019-03-15T01:30:49.762Z,17.87
2019-03-15T01:31:46.480Z,17.87
2019-03-15T01:32:43.197Z,17.81
2019-03-15T01:33:39.901Z,17.87
2019-03-15T01:34:36.619Z,17.87
2019-03-15T01:35:34.068Z,17.87
2019-03-15T01:36:30.947Z,17.81
2019-03-15T01:37:27.665Z,17.81
2019-03-15T01:38:24.378Z,17.87
2019-03-15T01:39:21.087Z,17.87
2019-03-15T01:40:17.790Z,17.81
2019-03-15T01:41:14.510Z,17.81
2019-03-15T01:42:11.224Z,17.81
2019-03-15T01:43:07.953Z,17.81
2019-03-15T01:44:04.666Z,17.81
2019-03-15T01:45:01.378Z,17.81
2019-03-15T01:45:58.090Z,17.81
2019-03-15T01:46:54.795Z,17.81
2019-03-15T01:47:51.522Z,17.81
2019-03-15T01:48:48.230Z,17.81
2019-03-15T01:49:44.962Z,17.81
2019-03-15T01:50:41.673Z,17.81
2019-03-15T01:51:38.401Z,17.81
2019-03-15T01:52:35.111Z,17.81
2019-03-15T01:53:31.850Z,17.81
2019-03-15T01:54:28.549Z,17.81
2019-03-15T01:55:25.253Z,17.81
2019-03-15T01:56:21.957Z,17.81
2019-03-15T01:57:18.659Z,17.81
2019-03-15T01:58:15.386Z,17.81
2019-03-15T01:59:12.103Z,17.81
2019-03-15T02:00:08.812Z,17.81
2019-03-15T02:01:05.537Z,17.81
2019-03-15T02:02:02.242Z,17.81
2019-03-15T02:03:02.137Z,17.81
2019-03-15T02:03:57.475Z,17.81
2019-03-15T02:04:54.174Z,17.81
2019-03-15T02:05:51.781Z,17.81
2019-03-15T02:06:48.610Z,17.81
2019-03-15T02:07:45.318Z,17.81
2019-03-15T02:08:42.054Z,17.81
2019-03-15T02:09:38.759Z,17.81
2019-03-15T02:10:35.463Z,17.81
2019-03-15T02:11:32.172Z,17.81
2019-03-15T02:12:28.871Z,17.81
2019-03-15T02:13:25.580Z,17.81
2019-03-15T02:14:22.294Z,17.81
2019-03-15T02:15:19.001Z,17.81
2019-03-15T02:16:15.718Z,17.81
2019-03-15T02:17:12.425Z,17.81
2019-03-15T02:18:09.130Z,17.81
2019-03-15T02:19:05.906Z,17.81
2019-03-15T02:20:02.613Z,17.75
2019-03-15T02:20:59.317Z,17.75
2019-03-15T02:21:56.021Z,17.75
2019-03-15T02:22:52.731Z,17.81
2019-03-15T02:23:49.458Z,17.75
2019-03-15T02:24:46.153Z,17.75
2019-03-15T02:25:42.861Z,17.75
2019-03-15T02:26:39.569Z,17.75
2019-03-15T02:27:36.275Z,17.75
2019-03-15T02:28:32.977Z,17.75
2019-03-15T02:29:29.690Z,17.75
2019-03-15T02:30:26.411Z,17.75
2019-03-15T02:31:23.123Z,17.75
2019-03-15T02:32:19.830Z,17.75
2019-03-15T02:33:16.541Z,17.75
2019-03-15T02:34:13.269Z,17.75
2019-03-15T02:35:09.988Z,17.75
2019-03-15T02:36:06.708Z,17.75
2019-03-15T02:37:03.414Z,17.75
2019-03-15T02:38:00.268Z,17.75
2019-03-15T02:38:57.131Z,17.75
2019-03-15T02:39:53.869Z,17.75
2019-03-15T02:40:50.567Z,17.75
2019-03-15T02:41:47.274Z,17.75
2019-03-15T02:42:43.973Z,17.75
2019-03-15T02:43:40.686Z,17.75
2019-03-15T02:44:38.488Z,17.75
2019-03-15T02:45:35.907Z,17.75
2019-03-15T02:46:32.629Z,17.75
2019-03-15T02:47:29.325Z,17.75
2019-03-15T02:48:26.018Z,17.75
2019-03-15T02:49:22.749Z,17.75
2019-03-15T02:50:19.445Z,17.75
2019-03-15T02:51:16.153Z,17.75
2019-03-15T02:52:12.852Z,17.75
2019-03-15T02:53:09.557Z,17.75
2019-03-15T02:54:06.263Z,17.75
2019-03-15T02:55:02.985Z,17.75
2019-03-15T02:55:59.693Z,17.75
2019-03-15T02:56:56.402Z,17.75
2019-03-15T02:57:53.108Z,17.69
2019-03-15T02:58:49.801Z,17.69
2019-03-15T02:59:47.236Z,17.75
2019-03-15T03:00:44.208Z,17.69
2019-03-15T03:01:41.191Z,17.75
2019-03-15T03:02:37.913Z,17.69
2019-03-15T03:03:34.606Z,17.69
2019-03-15T03:04:31.326Z,17.69
2019-03-15T03:05:28.030Z,17.69
2019-03-15T03:06:24.735Z,17.69
2019-03-15T03:07:21.424Z,17.69
2019-03-15T03:08:18.030Z,17.69
2019-03-15T03:09:14.733Z,17.69
2019-03-15T03:10:11.456Z,17.69
2019-03-15T03:11:08.148Z,17.69
2019-03-15T03:12:04.758Z,17.69
2019-03-15T03:13:01.457Z,17.69
2019-03-15T03:13:58.158Z,17.69
2019-03-15T03:14:54.847Z,17.69
2019-03-15T03:15:52.108Z,17.69
2019-03-15T03:16:48.978Z,17.69
2019-03-15T03:17:45.677Z,17.69
2019-03-15T03:18:42.377Z,17.69
2019-03-15T03:19:39.072Z,17.69
2019-03-15T03:20:35.769Z,17.69
2019-03-15T03:21:32.479Z,17.69
2019-03-15T03:22:29.166Z,17.69
2019-03-15T03:23:25.881Z,17.69
2019-03-15T03:24:22.590Z,17.69
2019-03-15T03:25:19.281Z,17.69
2019-03-15T03:26:15.916Z,17.69
2019-03-15T03:27:12.618Z,17.69
2019-03-15T03:28:09.322Z,17.69
2019-03-15T03:29:06.021Z,17.69
2019-03-15T03:30:02.761Z,17.69
2019-03-15T03:30:59.532Z,17.69
2019-03-15T03:31:56.286Z,17.69
2019-03-15T03:32:52.975Z,17.69
2019-03-15T03:33:49.667Z,17.69
2019-03-15T03:34:46.368Z,17.69
2019-03-15T03:35:43.091Z,17.69
2019-03-15T03:36:39.798Z,17.69
2019-03-15T03:37:36.503Z,17.69
2019-03-15T03:38:33.193Z,17.69
2019-03-15T03:39:29.886Z,17.69
2019-03-15T03:40:26.598Z,17.69
2019-03-15T03:41:23.485Z,17.69
2019-03-15T03:42:20.218Z,17.69
2019-03-15T03:43:16.909Z,17.62
2019-03-15T03:44:13.616Z,17.69
2019-03-15T03:45:10.317Z,17.62
2019-03-15T03:46:07.044Z,17.62
2019-03-15T03:47:03.749Z,17.62
2019-03-15T03:48:00.448Z,17.62
2019-03-15T03:48:57.128Z,17.62
2019-03-15T03:49:53.786Z,17.62
2019-03-15T03:50:50.449Z,17.62
2019-03-15T03:51:47.168Z,17.62
2019-03-15T03:52:43.858Z,17.62
2019-03-15T03:53:40.557Z,17.62
2019-03-15T03:54:37.271Z,17.62
2019-03-15T03:55:33.973Z,17.62
2019-03-15T03:56:30.690Z,17.62
2019-03-15T03:57:27.397Z,17.62
2019-03-15T03:58:24.090Z,17.62
2019-03-15T03:59:20.810Z,17.62
2019-03-15T04:00:17.521Z,17.62
2019-03-15T04:01:14.251Z,17.62
2019-03-15T04:02:10.946Z,17.62
2019-03-15T04:03:07.681Z,17.62
2019-03-15T04:04:04.365Z,17.62
2019-03-15T04:05:01.058Z,17.62
2019-03-15T04:05:57.753Z,17.62
2019-03-15T04:06:54.478Z,17.62
2019-03-15T04:07:51.181Z,17.62
2019-03-15T04:08:47.886Z,17.62
2019-03-15T04:09:44.589Z,17.62
2019-03-15T04:10:41.289Z,17.62
2019-03-15T04:11:37.997Z,17.62
2019-03-15T04:12:34.705Z,17.62
2019-03-15T04:13:31.414Z,17.62
2019-03-15T04:14:28.113Z,17.62
2019-03-15T04:15:24.817Z,17.62
2019-03-15T04:16:21.514Z,17.62
2019-03-15T04:17:18.241Z,17.62
2019-03-15T04:18:14.934Z,17.62
2019-03-15T04:19:11.629Z,17.62
2019-03-15T04:20:08.341Z,17.62
2019-03-15T04:21:05.040Z,17.62
2019-03-15T04:22:01.728Z,17.62
2019-03-15T04:22:58.457Z,17.62
2019-03-15T04:23:55.162Z,17.62
2019-03-15T04:24:51.858Z,17.62
2019-03-15T04:25:48.565Z,17.62
2019-03-15T04:26:45.265Z,17.62
2019-03-15T04:27:42.025Z,17.62
2019-03-15T04:28:38.786Z,17.56
2019-03-15T04:29:35.490Z,17.56
2019-03-15T04:30:32.184Z,17.56
2019-03-15T04:31:28.892Z,17.62
2019-03-15T04:32:25.588Z,17.56
2019-03-15T04:33:22.322Z,17.56
2019-03-15T04:34:18.993Z,17.56
2019-03-15T04:35:15.697Z,17.56
2019-03-15T04:36:12.388Z,17.56
2019-03-15T04:37:09.366Z,17.56
2019-03-15T04:38:06.435Z,17.56
2019-03-15T04:39:03.597Z,17.56
2019-03-15T04:40:00.493Z,17.56
2019-03-15T04:40:57.309Z,17.56
2019-03-15T04:41:54.018Z,17.56
2019-03-15T04:42:50.721Z,17.56
2019-03-15T04:43:47.448Z,17.56
2019-03-15T04:44:44.150Z,17.56
2019-03-15T04:45:40.856Z,17.56
2019-03-15T04:46:37.548Z,17.56
2019-03-15T04:47:34.253Z,17.56
2019-03-15T04:48:30.944Z,17.56
2019-03-15T04:49:27.580Z,17.56
2019-03-15T04:50:24.280Z,17.56
2019-03-15T04:51:20.979Z,17.56
2019-03-15T04:52:17.688Z,17.56
2019-03-15T04:53:14.394Z,17.56
2019-03-15T04:54:11.121Z,17.56
2019-03-15T04:55:07.822Z,17.56
2019-03-15T04:56:04.612Z,17.56
2019-03-15T04:57:01.319Z,17.56
2019-03-15T04:57:58.337Z,17.56
2019-03-15T04:58:55.056Z,17.56
2019-03-15T04:59:51.760Z,17.56
2019-03-15T05:00:48.457Z,17.56
2019-03-15T05:01:45.153Z,17.56
2019-03-15T05:02:41.761Z,17.56
2019-03-15T05:03:38.471Z,17.56
2019-03-15T05:04:35.194Z,17.56
2019-03-15T05:05:31.913Z,17.56
2019-03-15T05:06:28.615Z,17.56
2019-03-15T05:07:25.310Z,17.56
2019-03-15T05:08:22.017Z,17.56
2019-03-15T05:09:18.750Z,17.56
2019-03-15T05:10:15.444Z,17.56
2019-03-15T05:11:12.145Z,17.56
2019-03-15T05:12:08.839Z,17.56
2019-03-15T05:13:05.532Z,17.56
2019-03-15T05:14:02.162Z,17.56
2019-03-15T05:14:58.770Z,17.56
2019-03-15T05:15:55.476Z,17.56
2019-03-15T05:16:52.173Z,17.56
2019-03-15T05:17:48.874Z,17.56
2019-03-15T05:18:45.576Z,17.50
2019-03-15T05:19:42.305Z,17.50
2019-03-15T05:20:39.006Z,17.50
2019-03-15T05:21:35.709Z,17.56
2019-03-15T05:22:32.400Z,17.50
2019-03-15T05:23:29.104Z,17.50
2019-03-15T05:24:25.833Z,17.50
2019-03-15T05:25:22.533Z,17.50
2019-03-15T05:26:19.239Z,17.50
2019-03-15T05:27:15.945Z,17.50
2019-03-15T05:28:12.650Z,17.50
2019-03-15T05:29:09.363Z,17.50
2019-03-15T05:30:06.089Z,17.50
2019-03-15T05:31:02.777Z,17.50
2019-03-15T05:31:59.392Z,17.50
2019-03-15T05:32:56.097Z,17.50
2019-03-15T05:33:52.797Z,17.50
2019-03-15T05:34:49.516Z,17.50
2019-03-15T05:35:46.126Z,17.50
2019-03-15T05:36:42.830Z,17.50
2019-03-15T05:37:39.525Z,17.50
2019-03-15T05:38:36.229Z,17.50
2019-03-15T05:39:32.929Z,17.50
2019-03-15T05:40:29.665Z,17.50
2019-03-15T05:41:26.361Z,17.50
2019-03-15T05:42:23.061Z,17.50
2019-03-15T05:43:19.761Z,17.50
2019-03-15T05:44:16.453Z,17.50
2019-03-15T05:45:13.189Z,17.50
2019-03-15T05:46:09.894Z,17.50
2019-03-15T05:47:06.589Z,17.50
2019-03-15T05:48:03.292Z,17.50
2019-03-15T05:48:59.990Z,17.50
2019-03-15T05:49:56.685Z,17.50
2019-03-15T05:50:53.409Z,17.50
2019-03-15T05:51:50.109Z,17.50
2019-03-15T05:52:46.810Z,17.50
2019-03-15T05:53:43.516Z,17.50
2019-03-15T05:54:40.213Z,17.50
2019-03-15T05:55:36.941Z,17.50
2019-03-15T05:56:33.640Z,17.50
2019-03-15T05:57:30.340Z,17.50
2019-03-15T05:58:27.044Z,17.50
2019-03-15T05:59:23.745Z,17.50
2019-03-15T06:00:20.356Z,17.50
2019-03-15T06:01:17.052Z,17.25
2019-03-15T06:02:13.753Z,16.81
2019-03-15T06:03:12.441Z,16.62
2019-03-15T06:04:08.948Z,16.56
2019-03-15T06:05:08.753Z,16.56
2019-03-15T06:06:04.176Z,16.50
2019-03-15T06:07:00.876Z,16.50
2019-03-15T06:07:57.580Z,16.50
2019-03-15T06:08:54.298Z,16.50
2019-03-15T06:09:51.001Z,16.50
2019-03-15T06:10:47.699Z,16.50
2019-03-15T06:11:44.431Z,16.50
2019-03-15T06:12:41.129Z,16.50
2019-03-15T06:13:37.819Z,16.50
2019-03-15T06:14:34.529Z,16.50
2019-03-15T06:15:31.238Z,16.50
2019-03-15T06:16:27.941Z,16.50
2019-03-15T06:17:24.653Z,16.50
2019-03-15T06:18:21.353Z,16.50
2019-03-15T06:19:18.045Z,16.50
2019-03-15T06:20:14.745Z,16.50
2019-03-15T06:21:11.478Z,16.50
2019-03-15T06:22:08.180Z,16.50
2019-03-15T06:23:04.879Z,16.50
2019-03-15T06:24:01.579Z,16.50
2019-03-15T06:24:58.272Z,16.50
2019-03-15T06:25:54.969Z,16.50
2019-03-15T06:26:51.697Z,16.50
2019-03-15T06:27:48.396Z,16.50
2019-03-15T06:28:45.097Z,16.50
2019-03-15T06:29:41.789Z,16.50
2019-03-15T06:30:38.396Z,16.56
2019-03-15T06:31:35.096Z,16.56
2019-03-15T06:32:31.804Z,16.56
2019-03-15T06:33:28.896Z,16.62
2019-03-15T06:34:25.792Z,16.69
2019-03-15T06:35:22.492Z,16.75
2019-03-15T06:36:19.127Z,16.94
2019-03-15T06:37:15.816Z,17.12
2019-03-15T06:38:12.425Z,17.37
2019-03-15T06:39:09.116Z,17.62
2019-03-15T06:40:05.812Z,20.12
2019-03-15T06:41:02.420Z,24.06
2019-03-15T06:41:59.161Z,24.75
2019-03-15T06:42:55.861Z,26.44
2019-03-15T06:43:52.557Z,30.31
2019-03-15T06:44:57.977Z,33.25
2019-03-15T06:45:47.774Z,34.69
2019-03-15T06:46:44.501Z,35.13
2019-03-15T06:47:41.116Z,35.13
2019-03-15T06:48:37.834Z,34.81
2019-03-15T06:49:34.537Z,34.00
2019-03-15T06:50:31.233Z,32.88
2019-03-15T06:51:27.965Z,31.62
2019-03-15T06:52:24.668Z,30.50
2019-03-15T06:53:21.278Z,29.06
2019-03-15T06:54:17.977Z,27.31
2019-03-15T06:55:14.688Z,26.31
2019-03-15T06:56:11.480Z,26.75
2019-03-15T06:57:08.207Z,28.12
2019-03-15T06:58:04.922Z,29.75
2019-03-15T06:59:01.617Z,31.12
2019-03-15T06:59:59.642Z,32.19
2019-03-15T07:00:57.357Z,33.06
2019-03-15T07:01:54.117Z,33.69
2019-03-15T07:02:50.847Z,34.19
2019-03-15T07:03:47.552Z,34.56
2019-03-15T07:04:44.252Z,34.88
2019-03-15T07:05:40.953Z,35.13
2019-03-15T07:06:37.657Z,35.25
2019-03-15T07:07:34.387Z,35.50
2019-03-15T07:08:31.084Z,35.75
2019-03-15T07:09:30.779Z,35.94
2019-03-15T07:10:26.280Z,36.13
2019-03-15T07:11:22.886Z,36.31
2019-03-15T07:12:19.596Z,36.50
2019-03-15T07:13:16.318Z,36.69
2019-03-15T07:14:13.012Z,36.88
2019-03-15T07:15:09.834Z,37.13
2019-03-15T07:16:06.616Z,37.25
2019-03-15T07:17:03.316Z,37.13
2019-03-15T07:18:00.046Z,36.81
2019-03-15T07:18:56.749Z,36.63
2019-03-15T07:19:54.570Z,36.44
2019-03-15T07:20:51.473Z,36.25
2019-03-15T07:21:48.166Z,36.13
2019-03-15T07:22:44.875Z,36.00
2019-03-15T07:23:41.568Z,35.88
2019-03-15T07:24:38.260Z,35.75
2019-03-15T07:25:34.966Z,35.56
2019-03-15T07:26:31.660Z,35.06
2019-03-15T07:27:28.260Z,34.31
2019-03-15T07:28:24.904Z,33.31
2019-03-15T07:29:21.601Z,32.00
2019-03-15T07:30:18.301Z,30.69
2019-03-15T07:31:15.001Z,29.69
2019-03-15T07:32:11.605Z,29.69
2019-03-15T07:33:08.338Z,30.69
2019-03-15T07:34:05.033Z,32.19
2019-03-15T07:35:01.741Z,33.81
2019-03-15T07:35:59.570Z,35.19
2019-03-15T07:36:56.649Z,36.31
2019-03-15T07:37:53.368Z,36.94
2019-03-15T07:38:50.069Z,37.00
2019-03-15T07:39:46.765Z,36.88
2019-03-15T07:40:43.473Z,36.69
2019-03-15T07:41:40.181Z,36.50
2019-03-15T07:42:36.893Z,36.25
2019-03-15T07:43:33.625Z,36.13
2019-03-15T07:44:30.337Z,35.94
2019-03-15T07:45:27.033Z,35.75
2019-03-15T07:46:23.733Z,35.50
2019-03-15T07:47:20.438Z,35.00
2019-03-15T07:48:22.331Z,34.19
2019-03-15T07:49:15.665Z,33.13
2019-03-15T07:50:14.098Z,31.87
2019-03-15T07:51:10.872Z,30.56
2019-03-15T07:52:07.576Z,29.75
2019-03-15T07:53:04.272Z,30.00
2019-03-15T07:54:00.997Z,31.25
2019-03-15T07:54:57.692Z,32.88
2019-03-15T07:55:54.405Z,34.50
2019-03-15T07:56:51.104Z,35.88
2019-03-15T07:57:47.806Z,36.56
2019-03-15T07:58:44.528Z,36.69
2019-03-15T07:59:41.236Z,36.63
2019-03-15T08:00:37.936Z,36.50
2019-03-15T08:01:34.632Z,36.31
2019-03-15T08:02:31.324Z,36.13
2019-03-15T08:03:28.057Z,35.94
2019-03-15T08:04:24.774Z,35.75
2019-03-15T08:05:21.467Z,35.44
2019-03-15T08:06:18.161Z,34.94
2019-03-15T08:07:14.862Z,34.19
2019-03-15T08:08:11.557Z,33.13
2019-03-15T08:09:08.286Z,31.81
2019-03-15T08:10:04.989Z,30.62
2019-03-15T08:11:01.705Z,29.81
2019-03-15T08:11:58.404Z,30.12
2019-03-15T08:12:55.099Z,31.44
2019-03-15T08:13:51.801Z,33.13
2019-03-15T08:14:48.552Z,34.81
2019-03-15T08:15:45.253Z,36.00
2019-03-15T08:16:41.953Z,36.50
2019-03-15T08:17:38.662Z,36.63
2019-03-15T08:18:35.369Z,36.50
2019-03-15T08:19:32.106Z,36.38
2019-03-15T08:20:28.806Z,36.19
2019-03-15T08:21:25.519Z,36.00
2019-03-15T08:22:22.221Z,35.81
2019-03-15T08:23:18.924Z,35.44
2019-03-15T08:24:15.617Z,34.81
2019-03-15T08:25:12.349Z,34.00
2019-03-15T08:26:09.055Z,33.00
2019-03-15T08:27:05.753Z,31.81
2019-03-15T08:28:02.454Z,30.69
2019-03-15T08:28:59.060Z,29.81
2019-03-15T08:29:55.785Z,30.00
2019-03-15T08:30:52.494Z,31.25
2019-03-15T08:31:49.188Z,32.88
2019-03-15T08:32:45.899Z,34.50
2019-03-15T08:33:42.657Z,35.75
2019-03-15T08:34:39.302Z,36.31
2019-03-15T08:35:35.993Z,36.44
2019-03-15T08:36:32.596Z,36.38
2019-03-15T08:37:29.305Z,36.25
2019-03-15T08:38:26.013Z,36.06
2019-03-15T08:39:22.736Z,35.94
2019-03-15T08:40:19.464Z,35.75
2019-03-15T08:41:16.166Z,35.38
2019-03-15T08:42:12.868Z,34.81
2019-03-15T08:43:09.561Z,34.00
2019-03-15T08:44:06.287Z,33.00
2019-03-15T08:45:03.018Z,31.81
2019-03-15T08:46:02.811Z,30.69
2019-03-15T08:46:58.238Z,29.87
2019-03-15T08:47:54.941Z,30.12
2019-03-15T08:48:51.655Z,31.37
2019-03-15T08:49:48.362Z,33.00
2019-03-15T08:50:45.064Z,34.56
2019-03-15T08:51:41.806Z,35.69
2019-03-15T08:52:41.701Z,36.25
2019-03-15T08:53:37.038Z,36.31
2019-03-15T08:54:33.645Z,36.69
2019-03-15T08:55:30.345Z,37.06
2019-03-15T08:56:27.089Z,36.50
2019-03-15T08:57:23.780Z,35.81
2019-03-15T08:58:22.085Z,35.25
2019-03-15T08:59:18.985Z,34.88
2019-03-15T09:00:15.704Z,34.63
2019-03-15T09:01:12.433Z,34.38
2019-03-15T09:02:09.135Z,34.13
2019-03-15T09:03:05.833Z,33.69
2019-03-15T09:04:02.541Z,33.13
2019-03-15T09:04:59.246Z,32.50
2019-03-15T09:05:55.952Z,31.81
2019-03-15T09:06:52.687Z,31.12
2019-03-15T09:07:49.393Z,30.62
2019-03-15T09:08:46.093Z,30.12
2019-03-15T09:09:42.801Z,29.63
2019-03-15T09:10:39.512Z,29.56
2019-03-15T09:11:36.205Z,30.37
2019-03-15T09:12:32.930Z,31.94
2019-03-15T09:13:29.633Z,33.63
2019-03-15T09:14:26.325Z,35.13
2019-03-15T09:15:22.922Z,35.94
2019-03-15T09:16:19.632Z,36.25
2019-03-15T09:17:19.646Z,36.19
2019-03-15T09:18:14.869Z,36.13
2019-03-15T09:19:11.597Z,36.88
2019-03-15T09:20:08.306Z,36.44
2019-03-15T09:21:05.013Z,35.56
2019-03-15T09:22:01.711Z,34.81
2019-03-15T09:22:58.657Z,34.31
2019-03-15T09:23:55.305Z,34.00
2019-03-15T09:24:52.005Z,33.81
2019-03-15T09:25:48.701Z,33.63
2019-03-15T09:26:45.400Z,33.50
2019-03-15T09:27:45.288Z,33.25
2019-03-15T09:28:40.676Z,33.00
2019-03-15T09:29:37.378Z,32.63
2019-03-15T09:30:34.081Z,32.13
2019-03-15T09:31:37.202Z,31.69
2019-03-15T09:32:29.288Z,31.12
2019-03-15T09:33:25.993Z,30.69
2019-03-15T09:34:22.684Z,30.31
2019-03-15T09:35:19.292Z,30.06
2019-03-15T09:36:15.985Z,29.69
2019-03-15T09:37:12.680Z,29.25
2019-03-15T09:38:10.637Z,29.25
2019-03-15T09:39:07.412Z,30.37
2019-03-15T09:40:04.122Z,32.00
2019-03-15T09:41:00.826Z,33.69
2019-03-15T09:41:57.524Z,35.06
2019-03-15T09:42:54.236Z,35.81
2019-03-15T09:43:50.941Z,36.00
2019-03-15T09:44:47.653Z,35.94
2019-03-15T09:45:44.357Z,35.75
2019-03-15T09:46:40.957Z,35.50
2019-03-15T09:47:37.670Z,35.13
2019-03-15T09:48:34.368Z,34.69
2019-03-15T09:49:30.984Z,34.13
2019-03-15T09:50:35.944Z,33.44
2019-03-15T09:51:26.196Z,32.63
2019-03-15T09:52:22.896Z,31.75
2019-03-15T09:53:19.621Z,30.88
2019-03-15T09:54:16.321Z,30.06
2019-03-15T09:55:13.017Z,29.56
2019-03-15T09:56:09.724Z,30.00
2019-03-15T09:57:06.433Z,31.25
2019-03-15T09:58:03.160Z,32.69
2019-03-15T09:58:59.868Z,34.00
2019-03-15T09:59:56.473Z,35.06
2019-03-15T10:00:53.173Z,35.38
2019-03-15T10:01:49.869Z,35.06
2019-03-15T10:02:46.568Z,34.38
2019-03-15T10:03:43.265Z,33.44
2019-03-15T10:04:39.885Z,32.44
2019-03-15T10:05:36.605Z,31.44
2019-03-15T10:06:33.324Z,30.56
2019-03-15T10:07:38.248Z,29.81
2019-03-15T10:08:28.552Z,29.25
2019-03-15T10:09:25.256Z,28.81
2019-03-15T10:10:22.065Z,28.38
2019-03-15T10:11:18.776Z,27.94
2019-03-15T10:12:15.495Z,27.56
2019-03-15T10:13:12.226Z,27.31
2019-03-15T10:14:08.925Z,27.06
2019-03-15T10:15:08.017Z,26.87
2019-03-15T10:16:04.135Z,26.69
2019-03-15T10:17:00.952Z,26.56
2019-03-15T10:17:57.750Z,26.44
2019-03-15T10:18:54.449Z,26.37
2019-03-15T10:19:51.140Z,26.25
2019-03-15T10:20:47.846Z,26.12
2019-03-15T10:21:44.549Z,26.06
2019-03-15T10:22:41.253Z,25.94
2019-03-15T10:23:37.963Z,25.94
2019-03-15T10:24:34.684Z,26.37
2019-03-15T10:25:31.391Z,27.00
2019-03-15T10:26:28.100Z,27.69
2019-03-15T10:27:24.801Z,28.50
2019-03-15T10:28:21.514Z,29.25
2019-03-15T10:29:19.712Z,30.25
2019-03-15T10:30:16.572Z,31.69
2019-03-15T10:31:13.268Z,32.50
2019-03-15T10:32:09.960Z,32.81
2019-03-15T10:33:06.661Z,32.81
2019-03-15T10:34:05.686Z,31.62
2019-03-15T10:35:01.889Z,30.62
2019-03-15T10:35:58.594Z,30.31
2019-03-15T10:36:55.334Z,30.37
2019-03-15T10:37:52.011Z,32.63
2019-03-15T10:38:48.709Z,34.94
2019-03-15T10:39:45.424Z,34.88
2019-03-15T10:40:42.133Z,33.25
2019-03-15T10:41:38.849Z,31.37
2019-03-15T10:42:35.545Z,30.44
2019-03-15T10:43:32.241Z,30.25
2019-03-15T10:44:29.109Z,30.37
2019-03-15T10:45:25.840Z,30.94
2019-03-15T10:46:22.540Z,31.62
2019-03-15T10:47:19.249Z,32.19
2019-03-15T10:48:25.014Z,32.44
2019-03-15T10:49:14.473Z,32.56
2019-03-15T10:50:11.184Z,33.69
2019-03-15T10:51:07.808Z,35.25
2019-03-15T10:52:04.500Z,35.25
2019-03-15T10:53:01.108Z,34.69
2019-03-15T10:53:57.813Z,34.19
2019-03-15T10:54:54.520Z,33.81
2019-03-15T10:56:00.129Z,33.44
2019-03-15T10:56:49.761Z,33.19
2019-03-15T10:57:46.460Z,32.94
2019-03-15T10:58:43.150Z,32.69
2019-03-15T10:59:39.859Z,32.44
2019-03-15T11:00:36.593Z,32.13
2019-03-15T11:01:33.305Z,31.81
2019-03-15T11:02:30.002Z,31.50
2019-03-15T11:03:26.717Z,31.12
2019-03-15T11:04:23.413Z,30.69
2019-03-15T11:05:20.112Z,30.25
2019-03-15T11:06:16.839Z,30.00
2019-03-15T11:07:13.545Z,29.81
2019-03-15T11:08:10.249Z,29.56
2019-03-15T11:09:06.953Z,29.31
2019-03-15T11:10:03.655Z,28.94
2019-03-15T11:11:00.389Z,28.56
2019-03-15T11:11:57.093Z,32.06
2019-03-15T11:12:53.797Z,36.63
2019-03-15T11:13:50.494Z,35.94
2019-03-15T11:14:47.201Z,33.81
2019-03-15T11:15:43.907Z,32.25
2019-03-15T11:16:40.606Z,31.44
2019-03-15T11:17:37.304Z,31.00
2019-03-15T11:18:34.010Z,30.81
2019-03-15T11:19:30.713Z,30.75
2019-03-15T11:20:27.417Z,30.69
2019-03-15T11:21:24.141Z,30.69
2019-03-15T11:22:20.847Z,30.62
2019-03-15T11:23:17.541Z,30.50
2019-03-15T11:24:14.241Z,30.31
2019-03-15T11:25:10.970Z,30.00
2019-03-15T11:26:13.687Z,29.63
2019-03-15T11:27:06.182Z,29.06
2019-03-15T11:28:02.892Z,28.50
2019-03-15T11:28:59.589Z,27.94
2019-03-15T11:29:56.291Z,27.37
2019-03-15T11:30:52.988Z,27.00
2019-03-15T11:31:49.697Z,26.62
2019-03-15T11:32:46.428Z,26.37
2019-03-15T11:33:43.137Z,26.19
2019-03-15T11:34:39.850Z,26.06
2019-03-15T11:35:36.542Z,25.88
2019-03-15T11:36:33.246Z,25.75
2019-03-15T11:37:29.946Z,25.62
2019-03-15T11:38:26.677Z,25.56
2019-03-15T11:39:23.377Z,25.44
2019-03-15T11:40:20.083Z,25.37
2019-03-15T11:41:16.784Z,25.31
2019-03-15T11:42:15.036Z,25.19
2019-03-15T11:43:11.826Z,25.12
2019-03-15T11:44:08.529Z,25.06
2019-03-15T11:45:05.232Z,25.00
2019-03-15T11:46:01.941Z,24.94
2019-03-15T11:46:58.637Z,24.87
2019-03-15T11:48:03.534Z,24.81
2019-03-15T11:48:53.863Z,24.69
2019-03-15T11:49:50.563Z,24.63
2019-03-15T11:50:47.257Z,24.56
2019-03-15T11:51:43.965Z,24.50
2019-03-15T11:52:40.674Z,24.44
2019-03-15T11:53:37.405Z,24.37
2019-03-15T11:54:34.105Z,24.31
2019-03-15T11:55:30.807Z,24.25
2019-03-15T11:56:27.510Z,24.19
2019-03-15T11:57:24.205Z,24.19
2019-03-15T11:58:20.917Z,24.12
2019-03-15T11:59:18.030Z,24.06
2019-03-15T12:00:14.736Z,24.00
2019-03-15T12:01:11.442Z,23.94
2019-03-15T12:02:10.596Z,24.69
2019-03-15T12:03:06.632Z,25.88
2019-03-15T12:04:03.353Z,26.50
2019-03-15T12:05:00.050Z,27.06
2019-03-15T12:05:56.755Z,28.00
2019-03-15T12:06:53.459Z,29.00
2019-03-15T12:07:50.169Z,29.81
2019-03-15T12:08:46.897Z,30.37
2019-03-15T12:09:43.598Z,31.06
2019-03-15T12:10:40.309Z,32.69
2019-03-15T12:11:37.001Z,33.69